createdAt,value
2018-05-16T00:04:38.083Z,30.20
2018-05-16T00:09:40.661Z,26.93
2018-05-16T00:14:43.229Z,25.63
2018-05-16T00:19:45.793Z,29.83
2018-05-16T00:24:48.279Z,35.87
2018-05-16T00:29:50.787Z,41.20
2018-05-16T00:34:53.300Z,38.13
2018-05-16T00:39:57.034Z,38.70
2018-05-16T00:44:59.574Z,41.30
2018-05-16T00:50:02.053Z,42.00
2018-05-16T00:55:04.639Z,41.90
2018-05-16T01:00:07.261Z,44.43
2018-05-16T01:05:09.887Z,46.67
2018-05-16T01:10:12.405Z,45.70
2018-05-16T01:15:15.000Z,48.57
2018-05-16T01:20:17.530Z,49.00
2018-05-16T01:25:20.122Z,48.13
2018-05-16T01:30:22.607Z,46.97
2018-05-16T01:35:25.118Z,51.53
2018-05-16T01:40:27.631Z,49.97
2018-05-16T01:45:30.148Z,48.50
2018-05-16T01:50:32.637Z,50.60
2018-05-16T01:55:35.141Z,49.87
2018-05-16T02:00:37.692Z,50.60
2018-05-16T02:05:40.469Z,52.67
2018-05-16T02:10:42.991Z,50.23
2018-05-16T02:15:45.543Z,53.10
2018-05-16T02:20:48.068Z,51.90
2018-05-16T02:25:50.583Z,49.30
2018-05-16T02:30:53.165Z,49.13
2018-05-16T02:35:55.650Z,49.57
2018-05-16T02:40:58.207Z,48.67
2018-05-16T02:46:00.718Z,50.37
2018-05-16T02:51:03.225Z,48.77
2018-05-16T02:56:05.739Z,48.97
2018-05-16T03:01:08.264Z,50.67
2018-05-16T03:06:10.899Z,51.00
2018-05-16T03:11:14.747Z,47.63
2018-05-16T03:16:17.492Z,47.47
2018-05-16T03:21:19.984Z,47.30
2018-05-16T03:26:22.503Z,48.50
2018-05-16T03:31:25.018Z,49.03
2018-05-16T03:36:27.598Z,48.13
2018-05-16T03:41:30.104Z,46.33
2018-05-16T03:46:32.640Z,47.77
2018-05-16T03:51:35.164Z,48.67
2018-05-16T03:56:37.914Z,46.93
2018-05-16T04:01:52.424Z,45.10
2018-05-16T04:06:54.950Z,42.57
2018-05-16T04:11:57.442Z,45.00
2018-05-16T04:16:59.992Z,40.80
2018-05-16T04:22:03.431Z,42.53
2018-05-16T04:27:07.578Z,42.43
2018-05-16T04:32:12.022Z,40.90
2018-05-16T04:37:14.510Z,39.43
2018-05-16T04:42:17.007Z,37.80
2018-05-16T04:47:19.679Z,38.30
2018-05-16T04:52:22.241Z,38.07
2018-05-16T04:57:24.723Z,36.17
2018-05-16T05:02:27.301Z,37.23
2018-05-16T05:07:29.844Z,38.57
2018-05-16T05:12:32.405Z,38.80
2018-05-16T05:17:35.139Z,35.03
2018-05-16T05:22:37.769Z,34.10
2018-05-16T05:27:40.397Z,33.63
2018-05-16T05:32:43.025Z,35.70
2018-05-16T05:37:45.554Z,37.07
2018-05-16T05:42:48.045Z,33.07
2018-05-16T05:47:50.879Z,30.53
2018-05-16T05:52:53.625Z,28.77
2018-05-16T05:57:57.820Z,28.33
2018-05-16T06:03:00.326Z,28.67
2018-05-16T06:08:02.860Z,27.87
2018-05-16T06:13:05.346Z,27.60
2018-05-16T06:18:09.108Z,26.07
2018-05-16T06:23:11.785Z,23.43
2018-05-16T06:28:14.342Z,27.17
2018-05-16T06:33:16.872Z,26.47
2018-05-16T06:38:19.361Z,28.13
2018-05-16T06:43:21.915Z,25.03
2018-05-16T06:48:24.691Z,22.83
2018-05-16T06:53:27.207Z,20.00
2018-05-16T06:58:29.843Z,20.17
2018-05-16T07:03:32.348Z,20.57
2018-05-16T07:08:34.873Z,20.93
2018-05-16T07:13:37.730Z,21.70
2018-05-16T07:18:40.406Z,20.80
2018-05-16T07:23:44.069Z,21.83
2018-05-16T07:28:46.601Z,21.83
2018-05-16T07:33:49.468Z,20.03
2018-05-16T07:38:52.192Z,21.80
2018-05-16T07:43:56.650Z,20.57
2018-05-16T07:48:59.259Z,19.47
2018-05-16T07:54:01.785Z,20.67
2018-05-16T07:59:04.282Z,18.80
2018-05-16T08:04:06.866Z,18.20
2018-05-16T08:09:09.447Z,18.57
2018-05-16T08:14:12.037Z,18.73
2018-05-16T08:19:14.588Z,19.40
2018-05-16T08:24:17.108Z,18.87
2018-05-16T08:29:19.630Z,20.37
2018-05-16T08:34:22.282Z,19.97
2018-05-16T08:39:24.782Z,19.50
2018-05-16T08:44:27.297Z,19.23
2018-05-16T08:49:29.787Z,17.40
2018-05-16T08:54:32.302Z,17.60
2018-05-16T08:59:34.811Z,17.67
2018-05-16T09:04:37.400Z,16.47
2018-05-16T09:09:40.013Z,15.50
2018-05-16T09:14:42.597Z,14.77
2018-05-16T09:19:45.105Z,15.20
2018-05-16T09:24:47.630Z,14.00
2018-05-16T09:29:50.146Z,15.67
2018-05-16T09:34:52.665Z,14.03
2018-05-16T09:39:55.129Z,13.37
2018-05-16T09:44:57.645Z,13.57
2018-05-16T09:50:00.147Z,12.73
2018-05-16T09:55:02.648Z,9.67
2018-05-16T10:00:05.168Z,11.10
2018-05-16T10:05:08.923Z,11.47
2018-05-16T10:10:11.518Z,10.67
2018-05-16T10:15:14.034Z,9.47
2018-05-16T10:20:16.712Z,9.57
2018-05-16T10:25:19.384Z,8.60
2018-05-16T10:30:22.207Z,8.27
2018-05-16T10:35:24.733Z,7.00
2018-05-16T10:40:27.217Z,6.67
2018-05-16T10:45:29.735Z,6.77
2018-05-16T10:50:33.237Z,6.63
2018-05-16T10:55:35.920Z,5.97
2018-05-16T11:00:38.449Z,6.97
2018-05-16T11:05:41.158Z,6.60
2018-05-16T11:10:43.752Z,6.87
2018-05-16T11:15:46.311Z,6.23
2018-05-16T11:20:48.802Z,5.87
2018-05-16T11:25:51.299Z,5.50
2018-05-16T11:30:54.589Z,5.30
2018-05-16T11:35:57.106Z,5.87
2018-05-16T11:40:59.585Z,5.97
2018-05-16T11:46:02.100Z,5.13
2018-05-16T11:51:04.642Z,5.20
2018-05-16T11:56:07.116Z,5.30
2018-05-16T12:01:09.621Z,5.87
2018-05-16T12:06:12.163Z,5.07
2018-05-16T12:11:14.664Z,5.73
2018-05-16T12:16:17.182Z,5.13
2018-05-16T12:21:19.729Z,4.73
2018-05-16T12:26:22.191Z,5.50
2018-05-16T12:31:24.936Z,5.57
2018-05-16T12:36:27.456Z,4.83
2018-05-16T12:41:41.978Z,5.23
2018-05-16T12:46:45.395Z,5.53
2018-05-16T12:51:48.505Z,5.00
2018-05-16T12:56:52.641Z,4.90
2018-05-16T13:01:55.273Z,4.87
2018-05-16T13:06:58.061Z,5.03
2018-05-16T13:12:05.621Z,4.57
2018-05-16T13:17:08.691Z,4.30
2018-05-16T13:22:11.182Z,4.40
2018-05-16T13:27:13.708Z,3.70
2018-05-16T13:32:16.230Z,4.30
2018-05-16T13:37:19.049Z,3.60
2018-05-16T13:42:21.696Z,4.30
2018-05-16T13:47:24.219Z,3.20
2018-05-16T13:52:26.729Z,3.40
2018-05-16T13:57:29.717Z,3.30
2018-05-16T14:02:32.242Z,3.53
2018-05-16T14:07:34.760Z,3.20
2018-05-16T14:12:37.280Z,3.40
2018-05-16T14:17:39.802Z,3.87
2018-05-16T14:22:42.419Z,4.13
2018-05-16T14:27:47.415Z,3.80
2018-05-16T14:32:50.072Z,3.93
2018-05-16T14:37:52.618Z,3.60
2018-05-16T14:42:55.248Z,4.27
2018-05-16T14:47:57.762Z,3.77
2018-05-16T14:53:00.285Z,4.10
2018-05-16T14:58:02.754Z,3.87
2018-05-16T15:03:05.316Z,4.30
2018-05-16T15:08:07.833Z,4.47
2018-05-16T15:13:10.350Z,5.43
2018-05-16T15:18:12.841Z,5.50
2018-05-16T15:23:15.348Z,5.23
2018-05-16T15:28:17.869Z,5.20
2018-05-16T15:33:20.396Z,4.00
2018-05-16T15:38:23.095Z,4.00
2018-05-16T15:43:25.675Z,4.30
2018-05-16T15:48:28.191Z,3.37
2018-05-16T15:53:30.677Z,2.90
2018-05-16T15:58:33.939Z,2.97
2018-05-16T16:03:36.692Z,3.07
2018-05-16T16:08:39.175Z,3.43
2018-05-16T16:13:41.668Z,3.50
2018-05-16T16:18:44.182Z,3.20
2018-05-16T16:23:46.700Z,3.70
2018-05-16T16:28:49.255Z,3.80
2018-05-16T16:33:51.980Z,4.07
2018-05-16T16:38:54.593Z,3.90
2018-05-16T16:43:57.044Z,3.70
2018-05-16T16:48:59.540Z,4.47
2018-05-16T16:54:02.032Z,3.77
2018-05-16T16:59:04.531Z,4.33
2018-05-16T17:04:07.101Z,3.60
2018-05-16T17:09:09.589Z,4.50
2018-05-16T17:14:12.107Z,4.07
2018-05-16T17:19:14.640Z,4.07
2018-05-16T17:24:17.153Z,4.50
2018-05-16T17:29:19.654Z,4.63
2018-05-16T17:34:22.388Z,4.70
2018-05-16T17:39:25.238Z,4.70
2018-05-16T17:44:27.966Z,5.03
2018-05-16T17:49:30.567Z,5.00
2018-05-16T17:54:33.093Z,5.43
2018-05-16T17:59:35.574Z,5.07
2018-05-16T18:04:38.131Z,4.60
2018-05-16T18:09:40.597Z,5.70
2018-05-16T18:20:16.413Z,5.83
2018-05-16T18:25:21.714Z,5.20
2018-05-16T18:30:24.243Z,5.63
2018-05-16T18:35:27.227Z,6.20
2018-05-16T18:40:29.733Z,5.67
2018-05-16T18:45:32.271Z,7.23
2018-05-16T18:50:34.774Z,7.23
2018-05-16T18:55:37.324Z,6.57
2018-05-16T19:00:39.832Z,6.87
2018-05-16T19:05:42.344Z,7.03
2018-05-16T19:10:45.611Z,7.20
2018-05-16T19:15:48.232Z,7.27
2018-05-16T19:20:50.757Z,7.70
2018-05-16T19:25:53.282Z,7.60
2018-05-16T19:30:56.045Z,7.80
2018-05-16T19:36:00.803Z,8.03
2018-05-16T19:41:03.363Z,8.53
2018-05-16T19:46:05.872Z,8.90
2018-05-16T19:51:08.378Z,8.70
2018-05-16T19:56:10.893Z,8.17
2018-05-16T20:01:13.655Z,8.50
2018-05-16T20:06:16.361Z,9.47
2018-05-16T20:11:21.408Z,10.07
2018-05-16T20:16:24.124Z,9.60
2018-05-16T20:21:26.678Z,10.60
2018-05-16T20:26:29.198Z,11.17
2018-05-16T20:31:31.695Z,10.53
2018-05-16T20:36:34.198Z,11.00
2018-05-16T20:41:36.695Z,10.93
2018-05-16T20:46:39.208Z,11.80
2018-05-16T20:51:41.816Z,10.80
2018-05-16T20:56:44.328Z,10.97
2018-05-16T21:01:46.892Z,11.13
2018-05-16T21:06:49.466Z,13.23
2018-05-16T21:11:52.139Z,12.97
2018-05-16T21:16:54.629Z,13.17
2018-05-16T21:21:57.249Z,12.90
2018-05-16T21:26:59.734Z,14.50
2018-05-16T21:32:02.268Z,12.97
2018-05-16T21:37:04.759Z,14.20
2018-05-16T21:42:07.263Z,13.70
2018-05-16T21:47:09.822Z,15.07
2018-05-16T21:52:12.391Z,14.70
2018-05-16T21:57:14.975Z,14.30
2018-05-16T22:02:17.719Z,14.13
2018-05-16T22:07:20.373Z,16.03
2018-05-16T22:12:22.997Z,16.60
2018-05-16T22:17:25.537Z,17.13
2018-05-16T22:22:28.025Z,16.83
2018-05-16T22:27:30.555Z,17.20
2018-05-16T22:32:34.039Z,17.40
2018-05-16T22:37:36.547Z,18.47
2018-05-16T22:42:39.056Z,17.87
2018-05-16T22:47:41.647Z,17.73
2018-05-16T22:52:44.231Z,19.20
2018-05-16T22:57:46.921Z,18.97
2018-05-16T23:02:49.466Z,19.83
2018-05-16T23:07:52.106Z,19.00
2018-05-16T23:12:54.695Z,19.50
2018-05-16T23:17:57.268Z,17.23
2018-05-16T23:22:59.887Z,18.73
2018-05-16T23:28:02.374Z,18.60
2018-05-16T23:33:04.926Z,18.73
2018-05-16T23:38:07.423Z,18.00
2018-05-16T23:43:09.949Z,17.57
2018-05-16T23:48:12.429Z,19.57
2018-05-16T23:53:14.989Z,18.60
2018-05-16T23:58:17.546Z,19.33
